createdAt,value
2023-04-02T00:01:39.596Z,150023.28
2023-04-02T00:04:26.511Z,150009.09
2023-04-02T00:06:57.924Z,150010.41
2023-04-02T00:09:38.882Z,150005.25
2023-04-02T00:12:17.882Z,150000.06
2023-04-02T00:14:52.709Z,149994.91
2023-04-02T00:17:23.648Z,149997.50
2023-04-02T00:19:57.979Z,149788.44
2023-04-02T00:22:30.755Z,149497.94
2023-04-02T00:25:05.241Z,149192.56
2023-04-02T00:27:33.348Z,148809.81
2023-04-02T00:30:01.490Z,148370.34
2023-04-02T00:32:32.638Z,148211.41
2023-04-02T00:35:01.704Z,147978.97
2023-04-02T00:37:39.124Z,147641.59
2023-04-02T00:40:16.826Z,147585.94
2023-04-02T00:42:48.898Z,147287.81
2023-04-02T00:45:25.141Z,146833.41
2023-04-02T00:47:53.979Z,146721.25
2023-04-02T00:50:28.995Z,145941.75
2023-04-02T00:52:59.914Z,145802.13
2023-04-02T00:55:37.323Z,145366.38
2023-04-02T00:58:19.201Z,145447.56
2023-04-02T01:00:50.749Z,145360.44
2023-04-02T01:03:36.950Z,145622.69
2023-04-02T01:06:11.436Z,145583.38
2023-04-02T01:08:59.782Z,146112.66
2023-04-02T01:11:52.721Z,146932.28
2023-04-02T01:14:33.110Z,147453.56
2023-04-02T01:17:10.989Z,147996.56
2023-04-02T01:20:10.727Z,148488.38
2023-04-02T01:22:51.098Z,149109.53
2023-04-02T01:25:25.642Z,149185.38
2023-04-02T01:28:05.705Z,149316.53
2023-04-02T01:30:37.105Z,149370.91
2023-04-02T01:33:07.350Z,149455.50
2023-04-02T01:35:38.765Z,149562.72
2023-04-02T01:38:13.899Z,149561.06
2023-04-02T01:40:48.788Z,149571.34
2023-04-02T01:43:25.500Z,149525.06
2023-04-02T01:45:54.773Z,149525.06
2023-04-02T01:48:29.671Z,149526.34
2023-04-02T01:51:03.721Z,149505.72
2023-04-02T01:53:32.548Z,149510.88
2023-04-02T01:56:02.799Z,149509.59
2023-04-02T01:58:33.582Z,149516.03
2023-04-02T02:01:07.382Z,149447.72
2023-04-02T02:03:36.638Z,149368.50
2023-04-02T02:06:06.834Z,149199.25
2023-04-02T02:08:40.376Z,149329.78
2023-04-02T02:11:13.207Z,149131.34
2023-04-02T02:13:42.087Z,149013.16
2023-04-02T02:16:21.568Z,148856.59
2023-04-02T02:18:53.325Z,148761.06
2023-04-02T02:21:35.263Z,148652.88
2023-04-02T02:24:06.388Z,148608.28
2023-04-02T02:26:36.490Z,148134.06
2023-04-02T02:29:12.366Z,147663.88
2023-04-02T02:31:44.653Z,147439.00
2023-04-02T02:34:26.948Z,147071.59
2023-04-02T02:37:03.452Z,146406.72
2023-04-02T02:39:38.966Z,146077.22
2023-04-02T02:42:19.848Z,145729.44
2023-04-02T02:44:57.816Z,145899.59
2023-04-02T02:47:30.379Z,145737.28
2023-04-02T02:50:15.823Z,145466.06
2023-04-02T02:52:56.868Z,145058.19
2023-04-02T02:55:28.675Z,144736.53
2023-04-02T02:58:01.943Z,144632.22
2023-04-02T03:00:30.085Z,144549.69
2023-04-02T03:02:59.686Z,144018.22
2023-04-02T03:05:29.660Z,143868.63
2023-04-02T03:07:59.506Z,143376.81
2023-04-02T03:10:39.169Z,142917.03
2023-04-02T03:13:19.842Z,142974.59
2023-04-02T03:15:58.004Z,143000.66
2023-04-02T03:18:44.099Z,142532.81
2023-04-02T03:21:21.659Z,141955.16
2023-04-02T03:23:55.040Z,141430.31
2023-04-02T03:26:29.221Z,140834.50
2023-04-02T03:29:02.605Z,140312.34
2023-04-02T03:31:36.601Z,139525.56
2023-04-02T03:34:15.104Z,138293.59
2023-04-02T03:36:53.236Z,136941.94
2023-04-02T03:39:27.504Z,136462.97
2023-04-02T03:41:59.563Z,135729.66
2023-04-02T03:44:32.934Z,135000.69
2023-04-02T03:47:07.068Z,134353.38
2023-04-02T03:49:40.792Z,133959.00
2023-04-02T03:52:15.374Z,133467.91
2023-04-02T03:54:53.718Z,132728.06
2023-04-02T03:57:29.723Z,132691.69
2023-04-02T04:00:04.892Z,132656.41
2023-04-02T04:02:42.471Z,132854.63
2023-04-02T04:05:24.300Z,133705.41
2023-04-02T04:07:54.756Z,133797.00
2023-04-02T04:10:26.778Z,134130.47
2023-04-02T04:12:57.964Z,134284.28
2023-04-02T04:15:32.370Z,134753.28
2023-04-02T04:18:04.502Z,135574.91
2023-04-02T04:20:41.488Z,136445.44
2023-04-02T04:23:19.969Z,136353.88
2023-04-02T04:25:49.508Z,136640.03
2023-04-02T04:28:25.285Z,137358.81
2023-04-02T04:31:00.208Z,137896.69
2023-04-02T04:33:34.734Z,138312.50
2023-04-02T04:36:04.785Z,138309.03
2023-04-02T04:38:35.061Z,138101.91
2023-04-02T04:41:07.684Z,138074.50
2023-04-02T04:43:46.169Z,138874.09
2023-04-02T04:46:18.690Z,139341.41
2023-04-02T04:48:53.257Z,139839.13
2023-04-02T04:51:28.854Z,140110.59
2023-04-02T04:53:58.896Z,140411.97
2023-04-02T04:56:29.788Z,140417.75
2023-04-02T04:59:04.472Z,140151.34
2023-04-02T05:01:42.502Z,140543.34
2023-04-02T05:04:17.722Z,140303.56
2023-04-02T05:06:56.409Z,140169.72
2023-04-02T05:09:33.249Z,140208.72
2023-04-02T05:12:08.985Z,140473.50
2023-04-02T05:14:42.894Z,140620.75
2023-04-02T05:17:25.068Z,140273.63
2023-04-02T05:20:18.991Z,140570.06
2023-04-02T05:22:56.994Z,141084.72
2023-04-02T05:25:27.199Z,140800.44
2023-04-02T05:28:02.934Z,140906.16
2023-04-02T05:30:53.128Z,141767.03
2023-04-02T05:33:27.199Z,141911.16
2023-04-02T05:36:00.768Z,141919.19
2023-04-02T05:38:33.261Z,141856.91
2023-04-02T05:41:18.972Z,141742.22
2023-04-02T05:43:50.081Z,141814.66
2023-04-02T05:46:25.673Z,141677.22
2023-04-02T05:48:58.169Z,141508.44
2023-04-02T05:51:32.093Z,141464.81
2023-04-02T05:54:04.868Z,140893.00
2023-04-02T05:56:40.620Z,140388.75
2023-04-02T05:59:21.902Z,139680.00
2023-04-02T06:01:55.738Z,138803.69
2023-04-02T06:04:34.423Z,137831.91
2023-04-02T06:07:08.545Z,136879.44
2023-04-02T06:10:02.679Z,135363.00
2023-04-02T06:12:36.451Z,134934.34
2023-04-02T06:15:13.211Z,132756.03
2023-04-02T06:17:47.930Z,129839.69
2023-04-02T06:20:18.904Z,124770.41
2023-04-02T06:25:56.699Z,114050.63
2023-04-02T06:28:29.701Z,107126.16
2023-04-02T06:31:02.669Z,101894.88
2023-04-02T06:33:36.463Z,95708.53
2023-04-02T06:36:08.024Z,89815.53
2023-04-02T06:38:58.743Z,87005.63
2023-04-02T06:41:42.462Z,82097.41
2023-04-02T06:44:22.015Z,77882.56
2023-04-02T06:46:55.402Z,75242.59
2023-04-02T06:49:35.605Z,70996.84
2023-04-02T06:52:13.789Z,68815.56
2023-04-02T06:54:42.013Z,64438.78
2023-04-02T06:57:15.212Z,62573.59
2023-04-02T06:59:57.659Z,60467.47
2023-04-02T07:02:32.328Z,57074.75
2023-04-02T07:05:32.134Z,52454.88
2023-04-02T07:08:01.610Z,50684.66
2023-04-02T07:10:43.895Z,45981.53
2023-04-02T07:13:16.691Z,42296.94
2023-04-02T07:15:46.390Z,36371.19
2023-04-02T07:18:25.452Z,33801.22
2023-04-02T07:20:57.298Z,32002.22
2023-04-02T07:23:28.151Z,32406.63
2023-04-02T07:25:58.555Z,28797.19
2023-04-02T07:28:31.120Z,24940.38
2023-04-02T07:31:04.222Z,17857.38
2023-04-02T07:33:32.447Z,7109.16
2023-04-02T07:36:02.929Z,9473.81
2023-04-02T07:38:42.004Z,-19977.22
2023-04-02T07:41:13.404Z,-19974.13
2023-04-02T07:44:02.580Z,-19960.06
2023-04-02T07:46:31.355Z,-19954.13
2023-04-02T07:49:01.667Z,-19973.56
2023-04-02T07:51:30.856Z,-19962.59
2023-04-02T07:54:01.960Z,-19955.53
2023-04-02T07:56:30.866Z,-19951.03
2023-04-02T07:59:02.503Z,-19961.88
2023-04-02T08:01:36.228Z,-19977.50
2023-04-02T08:04:07.834Z,-19973.84
2023-04-02T08:06:35.980Z,-19979.19
2023-04-02T08:09:03.999Z,-19960.06
2023-04-02T08:11:32.075Z,-19973.28
2023-04-02T08:14:00.021Z,-19980.31
2023-04-02T08:16:29.560Z,-19970.75
2023-04-02T08:18:57.615Z,-19963.00
2023-04-02T08:21:26.174Z,-19956.81
2023-04-02T08:23:54.170Z,-19952.72
2023-04-02T08:26:22.598Z,-19978.50
2023-04-02T08:28:50.475Z,-19978.34
2023-04-02T08:31:19.141Z,-19965.97
2023-04-02T08:33:51.382Z,-19982.84
2023-04-02T08:36:21.384Z,-19954.28
2023-04-02T08:38:49.570Z,-19962.88
2023-04-02T08:41:27.526Z,-19989.34
2023-04-02T08:44:12.580Z,-20015.78
2023-04-02T08:46:45.892Z,-20027.00
2023-04-02T08:49:25.089Z,-20012.09
2023-04-02T08:51:56.020Z,-20024.19
2023-04-02T08:54:30.552Z,-20032.34
2023-04-02T08:57:03.282Z,-20031.38
2023-04-02T08:59:35.200Z,-20034.88
2023-04-02T09:02:27.492Z,-20047.78
2023-04-02T09:04:58.910Z,-20054.81
2023-04-02T09:07:28.649Z,-20055.38
2023-04-02T09:09:58.145Z,-20030.94
2023-04-02T09:12:28.901Z,-20030.53
2023-04-02T09:15:18.272Z,-20052.00
2023-04-02T09:17:54.221Z,-20040.22
2023-04-02T09:20:27.784Z,-20059.72
2023-04-02T09:22:58.996Z,-20075.03
2023-04-02T09:25:29.859Z,-20089.59
2023-04-02T09:28:02.080Z,-20073.47
2023-04-02T09:30:43.571Z,-20085.25
2023-04-02T09:33:11.953Z,-20076.16
2023-04-02T09:35:56.478Z,-20077.41
2023-04-02T09:38:29.077Z,-20073.47
2023-04-02T09:41:01.518Z,-20085.13
2023-04-02T09:43:30.738Z,-20088.63
2023-04-02T09:46:03.822Z,-20070.41
2023-04-02T09:48:35.379Z,-20098.03
2023-04-02T09:51:23.619Z,-20108.13
2023-04-02T09:54:01.349Z,-20092.97
2023-04-02T09:56:30.311Z,-20080.50
2023-04-02T09:59:15.471Z,-20095.63
2023-04-02T10:01:47.871Z,-20064.91
2023-04-02T10:04:36.605Z,-20061.84
2023-04-02T10:07:07.445Z,-20073.34
2023-04-02T10:09:38.687Z,-20086.66
2023-04-02T10:12:13.818Z,-20102.94
2023-04-02T10:14:44.232Z,-20107.41
2023-04-02T10:17:21.920Z,-20129.69
2023-04-02T10:19:54.324Z,-20124.63
2023-04-02T10:22:24.649Z,-20133.31
2023-04-02T10:24:52.875Z,43340.13
2023-04-02T10:27:31.770Z,43700.38
2023-04-02T10:30:15.947Z,57391.63
2023-04-02T10:32:49.681Z,55599.66
2023-04-02T10:35:25.788Z,22039.44
2023-04-02T10:38:18.008Z,43735.81
2023-04-02T10:41:00.247Z,65695.72
2023-04-02T10:44:06.197Z,41399.28
2023-04-02T10:46:50.085Z,53749.00
2023-04-02T10:49:26.114Z,73572.09
2023-04-02T10:52:01.061Z,45692.41
2023-04-02T10:54:41.775Z,42982.59
2023-04-02T10:57:20.830Z,33361.78
2023-04-02T10:59:53.218Z,49701.78
2023-04-02T11:02:36.058Z,38693.41
2023-04-02T11:05:20.255Z,37692.69
2023-04-02T11:08:24.834Z,42363.50
2023-04-02T11:11:08.626Z,37990.53
2023-04-02T11:13:41.237Z,41676.16
2023-04-02T11:16:15.286Z,32344.75
2023-04-02T11:19:20.450Z,31752.47
2023-04-02T11:21:59.606Z,57123.00
2023-04-02T11:24:38.444Z,66612.81
2023-04-02T11:27:16.523Z,58488.47
2023-04-02T11:29:47.868Z,63580.78
2023-04-02T11:32:47.415Z,94338.75
2023-04-02T11:35:36.859Z,92716.19
2023-04-02T11:38:44.024Z,101050.84
2023-04-02T11:41:12.300Z,121868.88
2023-04-02T11:44:02.443Z,114344.81
2023-04-02T11:46:47.147Z,80265.09
2023-04-02T11:49:34.888Z,49363.50
2023-04-02T11:52:11.879Z,60827.69
2023-04-02T11:54:41.894Z,65567.44
2023-04-02T11:57:22.125Z,73014.22
2023-04-02T12:00:13.402Z,106095.16
2023-04-02T12:02:59.517Z,120256.19
2023-04-02T12:05:32.107Z,97254.53
2023-04-02T12:08:23.431Z,132026.91
2023-04-02T12:10:56.334Z,81782.03
2023-04-02T12:13:51.516Z,69078.91
2023-04-02T12:16:24.401Z,35748.66
2023-04-02T12:18:55.165Z,72016.38
2023-04-02T12:21:30.615Z,61479.84
2023-04-02T12:24:00.608Z,79767.75
2023-04-02T12:26:37.270Z,73917.66
2023-04-02T12:29:24.011Z,53849.78
2023-04-02T12:31:56.775Z,95738.84
2023-04-02T12:34:27.236Z,57386.63
2023-04-02T12:36:57.052Z,46097.63
2023-04-02T12:39:27.907Z,59870.03
2023-04-02T12:41:59.302Z,64015.75
2023-04-02T12:44:28.449Z,103766.53
2023-04-02T12:46:59.154Z,104388.41
2023-04-02T12:49:36.915Z,114602.81
2023-04-02T12:52:07.310Z,94722.06
2023-04-02T12:54:39.306Z,89849.34
2023-04-02T12:57:40.171Z,65909.69
2023-04-02T13:00:36.996Z,54051.50
2023-04-02T13:03:23.502Z,56807.31
2023-04-02T13:05:56.248Z,75482.03
2023-04-02T13:08:27.651Z,103232.03
2023-04-02T13:10:58.925Z,100863.63
2023-04-02T13:13:30.753Z,106351.03
2023-04-02T13:16:25.222Z,119598.72
2023-04-02T13:19:11.756Z,133356.91
2023-04-02T13:21:39.835Z,131738.41
2023-04-02T13:24:18.089Z,143049.06
2023-04-02T13:26:48.088Z,152571.50
2023-04-02T13:29:21.763Z,152385.69
2023-04-02T13:31:52.494Z,152454.59
2023-04-02T13:34:22.713Z,152380.50
2023-04-02T13:36:50.820Z,152575.38
2023-04-02T13:39:19.498Z,152762.59
2023-04-02T13:41:49.905Z,152676.78
2023-04-02T13:44:23.665Z,152662.47
2023-04-02T13:46:53.008Z,152565.00
2023-04-02T13:49:31.670Z,152416.88
2023-04-02T13:52:03.241Z,152154.63
2023-04-02T13:54:36.198Z,107897.94
2023-04-02T13:57:07.700Z,144527.72
2023-04-02T13:59:40.085Z,152835.41
2023-04-02T14:02:12.078Z,152865.31
2023-04-02T14:04:50.799Z,152520.78
2023-04-02T14:07:39.986Z,152390.91
2023-04-02T14:10:22.157Z,152328.56
2023-04-02T14:13:17.565Z,136640.00
2023-04-02T14:16:04.209Z,152250.66
2023-04-02T14:18:45.610Z,121915.03
2023-04-02T14:21:27.790Z,99986.03
2023-04-02T14:24:07.969Z,95391.72
2023-04-02T14:26:45.171Z,120404.06
2023-04-02T14:29:19.910Z,152658.56
2023-04-02T14:31:52.488Z,100089.59
2023-04-02T14:34:29.711Z,116789.06
2023-04-02T14:37:07.090Z,76090.22
2023-04-02T14:39:44.476Z,111033.75
2023-04-02T14:42:15.787Z,140078.97
2023-04-02T14:44:50.147Z,138018.00
2023-04-02T14:47:23.575Z,96059.78
2023-04-02T14:49:56.080Z,124505.88
2023-04-02T14:52:30.085Z,119252.66
2023-04-02T14:55:03.381Z,150149.19
2023-04-02T14:57:34.003Z,152565.00
2023-04-02T15:00:06.710Z,152214.31
2023-04-02T15:02:42.367Z,152292.22
2023-04-02T15:05:18.082Z,152427.28
2023-04-02T15:07:52.938Z,152526.00
2023-04-02T15:10:30.912Z,152428.59
2023-04-02T15:13:13.258Z,152510.44
2023-04-02T15:16:11.736Z,152237.72
2023-04-02T15:18:52.022Z,99065.53
2023-04-02T15:21:57.696Z,124389.09
2023-04-02T15:24:38.544Z,152279.22
2023-04-02T15:27:25.934Z,151211.56
2023-04-02T15:30:02.013Z,152271.44
2023-04-02T15:32:38.645Z,152318.16
2023-04-02T15:35:20.454Z,152237.72
2023-04-02T15:37:58.838Z,152227.31
2023-04-02T15:40:45.474Z,152233.81
2023-04-02T15:43:20.637Z,152333.75
2023-04-02T15:46:20.342Z,152306.47
2023-04-02T15:49:07.128Z,152303.88
2023-04-02T15:52:01.457Z,152185.78
2023-04-02T15:54:46.771Z,152097.53
2023-04-02T15:57:41.368Z,152207.81
2023-04-02T16:00:28.118Z,152128.69
2023-04-02T16:03:20.485Z,152235.09
2023-04-02T16:05:58.836Z,151926.25
2023-04-02T16:08:41.916Z,151965.19
2023-04-02T16:11:13.003Z,152071.59
2023-04-02T16:13:43.791Z,152096.22
2023-04-02T16:16:16.341Z,152100.13
2023-04-02T16:18:54.350Z,152061.22
2023-04-02T16:21:24.441Z,151879.59
2023-04-02T16:23:52.750Z,131290.72
2023-04-02T16:26:33.159Z,151940.53
2023-04-02T16:29:23.724Z,151882.19
2023-04-02T16:31:58.077Z,151915.88
2023-04-02T16:34:40.499Z,151845.91
2023-04-02T16:37:17.931Z,151813.47
2023-04-02T16:39:52.331Z,151680.00
2023-04-02T16:42:32.703Z,149143.00
2023-04-02T16:45:23.130Z,117544.31
2023-04-02T16:48:07.045Z,94798.44
2023-04-02T16:50:44.202Z,109707.69
2023-04-02T16:53:24.063Z,82358.91
2023-04-02T16:56:15.475Z,89725.75
2023-04-02T16:58:53.958Z,97853.75
2023-04-02T17:01:34.416Z,103591.19
2023-04-02T17:04:32.205Z,120889.06
2023-04-02T17:07:11.538Z,100828.78
2023-04-02T17:09:48.194Z,94750.44
2023-04-02T17:12:21.450Z,72190.13
2023-04-02T17:14:57.504Z,87971.72
2023-04-02T17:17:26.986Z,73511.44
2023-04-02T17:20:01.815Z,81215.66
2023-04-02T17:22:33.130Z,76172.59
2023-04-02T17:25:04.891Z,104775.63
2023-04-02T17:27:36.669Z,110165.94
2023-04-02T17:30:14.460Z,111516.59
2023-04-02T17:32:44.072Z,88874.13
2023-04-02T17:35:18.594Z,100648.09
2023-04-02T17:37:55.670Z,96595.78
2023-04-02T17:40:30.637Z,86816.00
2023-04-02T17:43:05.981Z,84138.09
2023-04-02T17:45:43.395Z,82440.97
2023-04-02T17:48:21.349Z,64012.28
2023-04-02T17:51:09.229Z,63004.28
2023-04-02T17:53:44.599Z,66326.97
2023-04-02T17:56:38.256Z,69985.59
2023-04-02T17:59:20.980Z,56986.41
2023-04-02T18:01:55.790Z,58971.78
2023-04-02T18:04:41.593Z,49991.56
2023-04-02T18:07:28.428Z,43340.38
2023-04-02T18:10:04.757Z,39032.22
2023-04-02T18:12:55.330Z,45341.22
2023-04-02T18:15:40.867Z,38039.09
2023-04-02T18:18:21.045Z,40016.06
2023-04-02T18:20:57.912Z,32735.84
2023-04-02T18:23:40.158Z,33720.22
2023-04-02T18:26:15.409Z,27442.78
2023-04-02T18:28:53.903Z,24148.63
2023-04-02T18:31:32.603Z,15927.56
2023-04-02T18:34:22.628Z,22170.16
2023-04-02T18:37:06.182Z,25459.22
2023-04-02T18:39:46.470Z,17564.16
2023-04-02T18:42:23.377Z,17897.06
2023-04-02T18:44:59.634Z,14941.06
2023-04-02T18:47:35.485Z,17229.31
2023-04-02T18:50:16.726Z,14281.28
2023-04-02T18:52:46.984Z,9692.56
2023-04-02T18:55:19.427Z,12314.63
2023-04-02T18:57:52.653Z,14603.97
2023-04-02T19:00:30.750Z,8705.16
2023-04-02T19:03:03.592Z,9031.63
2023-04-02T19:05:44.447Z,16567.91
2023-04-02T19:08:22.353Z,17221.19
2023-04-02T19:10:55.647Z,14924.19
2023-04-02T19:13:23.578Z,14262.66
2023-04-02T19:16:39.069Z,15576.63
2023-04-02T19:19:22.983Z,17867.97
2023-04-02T19:22:08.019Z,21477.25
2023-04-02T19:25:14.806Z,22788.81
2023-04-02T19:27:55.820Z,21148.03
2023-04-02T19:30:35.631Z,17534.38
2023-04-02T19:33:12.802Z,31661.09
2023-04-02T19:35:46.912Z,31662.53
2023-04-02T19:38:32.409Z,32647.03
2023-04-02T19:41:09.435Z,30993.56
2023-04-02T19:43:37.714Z,25410.38
2023-04-02T19:46:06.254Z,32315.75
2023-04-02T19:48:44.550Z,37582.25
2023-04-02T19:51:12.710Z,42542.16
2023-04-02T19:53:40.663Z,38912.34
2023-04-02T19:56:10.253Z,34298.38
2023-04-02T19:58:38.482Z,34615.44
2023-04-02T20:01:06.797Z,30336.66
2023-04-02T20:03:35.154Z,26055.59
2023-04-02T20:06:03.882Z,25730.19
2023-04-02T20:08:32.194Z,30655.41
2023-04-02T20:11:00.980Z,22446.88
2023-04-02T20:13:30.920Z,16864.44
2023-04-02T20:16:00.912Z,18832.78
2023-04-02T20:18:29.701Z,15557.78
2023-04-02T20:20:57.676Z,13913.03
2023-04-02T20:23:26.070Z,11631.38
2023-04-02T20:26:01.516Z,8033.16
2023-04-02T20:28:31.517Z,6073.38
2023-04-02T20:31:08.582Z,5099.44
2023-04-02T20:33:38.391Z,3140.16
2023-04-02T20:36:08.967Z,2161.09
2023-04-02T20:38:37.653Z,-2073.59
2023-04-02T20:41:06.800Z,-5650.19
2023-04-02T20:43:40.634Z,-11493.56
2023-04-02T20:46:12.259Z,-11174.78
2023-04-02T20:48:41.688Z,-9225.31
2023-04-02T20:51:13.007Z,4766.19
2023-04-02T20:53:42.582Z,38188.94
2023-04-02T20:56:13.920Z,49388.28
2023-04-02T20:58:49.067Z,8677.47
2023-04-02T21:01:21.428Z,39826.44
2023-04-02T21:03:55.588Z,-15054.53
2023-04-02T21:06:28.294Z,-13437.47
2023-04-02T21:08:56.456Z,-17974.75
2023-04-02T21:11:26.264Z,-10520.38
2023-04-02T21:13:55.694Z,-17003.91
2023-04-02T21:16:24.974Z,-19912.41
2023-04-02T21:18:54.113Z,-19913.25
2023-04-02T21:21:23.813Z,-19915.66
2023-04-02T21:23:57.872Z,-19910.88
2023-04-02T21:26:29.262Z,-19914.41
2023-04-02T21:28:59.347Z,-19912.13
2023-04-02T21:31:29.502Z,-19905.66
2023-04-02T21:33:59.663Z,-19907.06
2023-04-02T21:36:31.224Z,-19909.16
2023-04-02T21:39:02.213Z,-19904.22
2023-04-02T21:41:32.327Z,-8894.84
2023-04-02T21:44:03.586Z,17469.13
2023-04-02T21:46:36.492Z,39806.03
2023-04-02T21:49:04.787Z,49682.19
2023-04-02T21:51:34.465Z,54243.53
2023-04-02T21:54:03.296Z,57663.78
2023-04-02T21:56:33.297Z,57671.31
2023-04-02T21:59:03.799Z,55402.81
2023-04-02T22:01:35.128Z,53476.75
2023-04-02T22:04:05.310Z,52946.50
2023-04-02T22:06:37.631Z,52584.84
2023-04-02T22:09:09.362Z,49989.16
2023-04-02T22:11:40.704Z,49633.44
2023-04-02T22:14:13.161Z,48885.56
2023-04-02T22:16:41.891Z,47591.28
2023-04-02T22:19:11.761Z,46417.03
2023-04-02T22:21:40.751Z,44563.88
2023-04-02T22:24:12.571Z,45769.91
2023-04-02T22:26:41.314Z,44362.56
2023-04-02T22:29:11.310Z,44738.09
2023-04-02T22:31:39.351Z,42312.66
2023-04-02T22:34:08.070Z,41779.03
2023-04-02T22:36:37.011Z,41649.97
2023-04-02T22:39:09.824Z,40862.91
2023-04-02T22:41:38.496Z,40460.75
2023-04-02T22:44:06.979Z,41452.97
2023-04-02T22:46:36.949Z,40428.41
2023-04-02T22:49:05.086Z,40276.56
2023-04-02T22:51:32.991Z,38497.75
2023-04-02T22:54:01.108Z,35535.16
2023-04-02T22:56:32.400Z,34566.47
2023-04-02T22:59:01.773Z,33912.81
2023-04-02T23:01:31.986Z,34453.31
2023-04-02T23:04:01.635Z,36143.75
2023-04-02T23:06:30.099Z,37970.31
2023-04-02T23:08:58.171Z,37453.59
2023-04-02T23:11:28.353Z,38712.69
2023-04-02T23:13:57.895Z,40114.69
2023-04-02T23:16:27.866Z,41937.16
2023-04-02T23:18:56.858Z,40085.34
2023-04-02T23:21:26.644Z,40972.16
2023-04-02T23:23:55.534Z,39549.84
2023-04-02T23:26:29.471Z,37334.03
2023-04-02T23:29:04.018Z,38206.88
2023-04-02T23:31:32.032Z,38052.41
2023-04-02T23:34:01.104Z,38567.19
2023-04-02T23:36:34.451Z,38092.22
2023-04-02T23:39:09.535Z,37281.25
2023-04-02T23:42:21.452Z,38833.41
2023-04-02T23:44:50.997Z,38084.13
2023-04-02T23:47:19.010Z,37323.91
2023-04-02T23:49:47.912Z,37054.16
2023-04-02T23:52:17.579Z,37420.78
2023-04-02T23:54:49.131Z,37629.28
2023-04-02T23:57:17.363Z,36916.34
2023-04-02T23:59:45.339Z,38407.16
